sensor_id;sensor_type;location;lat;lon;timestamp;pressure;altitude;pressure_sealevel;temperature;humidity
53270;BME280;39159;45.634;9.420;2023-02-13T00:00:29;100927.41;;;2.80;69.31
53270;BME280;39159;45.634;9.420;2023-02-13T00:02:54;100933.22;;;2.70;69.51
53270;BME280;39159;45.634;9.420;2023-02-13T00:05:20;100926.38;;;2.67;69.77
53270;BME280;39159;45.634;9.420;2023-02-13T00:07:45;100928.44;;;2.65;69.86
53270;BME280;39159;45.634;9.420;2023-02-13T00:10:10;100925.31;;;2.68;69.58
53270;BME280;39159;45.634;9.420;2023-02-13T00:12:36;100925.94;;;2.70;69.70
53270;BME280;39159;45.634;9.420;2023-02-13T00:15:02;100924.31;;;2.69;69.85
53270;BME280;39159;45.634;9.420;2023-02-13T00:17:28;100921.19;;;2.66;69.89
53270;BME280;39159;45.634;9.420;2023-02-13T00:19:53;100921.59;;;2.63;70.20
53270;BME280;39159;45.634;9.420;2023-02-13T00:22:18;100923.47;;;2.62;70.24
53270;BME280;39159;45.634;9.420;2023-02-13T00:24:44;100929.91;;;2.61;70.49
53270;BME280;39159;45.634;9.420;2023-02-13T00:27:09;100940.47;;;2.56;70.82
53270;BME280;39159;45.634;9.420;2023-02-13T00:29:35;100940.47;;;2.49;71.04
53270;BME280;39159;45.634;9.420;2023-02-13T00:32:00;100938.16;;;2.46;71.60
53270;BME280;39159;45.634;9.420;2023-02-13T00:34:26;100934.44;;;2.41;71.52
53270;BME280;39159;45.634;9.420;2023-02-13T00:36:52;100940.66;;;2.41;71.63
53270;BME280;39159;45.634;9.420;2023-02-13T00:39:17;100934.03;;;2.44;71.60
53270;BME280;39159;45.634;9.420;2023-02-13T00:41:43;100937.78;;;2.49;71.46
53270;BME280;39159;45.634;9.420;2023-02-13T00:44:08;100938.16;;;2.53;71.29
53270;BME280;39159;45.634;9.420;2023-02-13T00:46:35;100932.78;;;2.60;70.88
53270;BME280;39159;45.634;9.420;2023-02-13T00:49:00;100936.09;;;2.62;71.09
53270;BME280;39159;45.634;9.420;2023-02-13T00:51:26;100930.09;;;2.60;71.09
53270;BME280;39159;45.634;9.420;2023-02-13T00:53:51;100945.25;;;2.61;71.50
53270;BME280;39159;45.634;9.420;2023-02-13T00:56:17;100938.41;;;2.65;71.14
53270;BME280;39159;45.634;9.420;2023-02-13T00:58:42;100941.72;;;2.67;70.88
53270;BME280;39159;45.634;9.420;2023-02-13T01:01:08;100941.31;;;2.70;70.59
53270;BME280;39159;45.634;9.420;2023-02-13T01:03:33;100948.56;;;2.76;70.11
53270;BME280;39159;45.634;9.420;2023-02-13T01:05:59;100950.03;;;2.79;69.95
53270;BME280;39159;45.634;9.420;2023-02-13T01:08:24;100946.50;;;2.78;69.64
53270;BME280;39159;45.634;9.420;2023-02-13T01:10:53;100946.28;;;2.80;69.58
53270;BME280;39159;45.634;9.420;2023-02-13T01:13:18;100950.22;;;2.77;69.60
53270;BME280;39159;45.634;9.420;2023-02-13T01:15:45;100949.19;;;2.78;69.60
53270;BME280;39159;45.634;9.420;2023-02-13T01:18:16;100952.53;;;2.80;69.68
53270;BME280;39159;45.634;9.420;2023-02-13T01:20:42;100947.72;;;2.76;69.94
53270;BME280;39159;45.634;9.420;2023-02-13T01:23:08;100957.91;;;2.74;70.07
53270;BME280;39159;45.634;9.420;2023-02-13T01:25:34;100956.22;;;2.73;69.96
53270;BME280;39159;45.634;9.420;2023-02-13T01:27:59;100951.28;;;2.76;69.75
53270;BME280;39159;45.634;9.420;2023-02-13T01:30:25;100946.06;;;2.75;69.84
53270;BME280;39159;45.634;9.420;2023-02-13T01:32:50;100952.91;;;2.70;69.90
53270;BME280;39159;45.634;9.420;2023-02-13T01:35:16;100955.41;;;2.65;70.08
53270;BME280;39159;45.634;9.420;2023-02-13T01:37:42;100946.69;;;2.63;70.30
53270;BME280;39159;45.634;9.420;2023-02-13T01:40:10;100948.13;;;2.59;70.23
53270;BME280;39159;45.634;9.420;2023-02-13T01:42:37;100951.25;;;2.63;70.26
53270;BME280;39159;45.634;9.420;2023-02-13T01:53:09;100942.31;;;2.89;68.49
53270;BME280;39159;45.634;9.420;2023-02-13T01:55:43;100944.00;;;2.97;67.89
53270;BME280;39159;45.634;9.420;2023-02-13T01:58:16;100949.19;;;3.05;66.73
53270;BME280;39159;45.634;9.420;2023-02-13T02:00:44;100943.16;;;3.09;66.73
53270;BME280;39159;45.634;9.420;2023-02-13T02:03:18;100947.09;;;3.14;66.43
53270;BME280;39159;45.634;9.420;2023-02-13T02:05:44;100947.47;;;3.24;66.13
53270;BME280;39159;45.634;9.420;2023-02-13T02:08:11;100934.78;;;3.38;65.47
53270;BME280;39159;45.634;9.420;2023-02-13T02:10:38;100937.88;;;3.48;64.98
53270;BME280;39159;45.634;9.420;2023-02-13T02:13:12;100944.50;;;3.52;64.71
53270;BME280;39159;45.634;9.420;2023-02-13T02:15:39;100941.34;;;3.62;64.24
53270;BME280;39159;45.634;9.420;2023-02-13T02:18:18;100942.19;;;3.62;64.28
53270;BME280;39159;45.634;9.420;2023-02-13T02:23:34;100934.28;;;3.67;64.07
53270;BME280;39159;45.634;9.420;2023-02-13T02:34:50;100935.56;;;3.65;64.25
53270;BME280;39159;45.634;9.420;2023-02-13T02:45:37;100929.13;;;3.59;64.52
53270;BME280;39159;45.634;9.420;2023-02-13T02:48:15;100929.13;;;3.59;64.67
53270;BME280;39159;45.634;9.420;2023-02-13T02:51:20;100932.03;;;3.58;64.54
53270;BME280;39159;45.634;9.420;2023-02-13T02:54:04;100933.91;;;3.57;64.84
53270;BME280;39159;45.634;9.420;2023-02-13T02:56:54;100931.41;;;3.56;64.91
53270;BME280;39159;45.634;9.420;2023-02-13T02:59:22;100935.97;;;3.55;65.08
53270;BME280;39159;45.634;9.420;2023-02-13T03:02:09;100932.25;;;3.56;65.10
53270;BME280;39159;45.634;9.420;2023-02-13T03:05:22;100936.63;;;3.50;65.32
53270;BME280;39159;45.634;9.420;2023-02-13T03:08:15;100928.53;;;3.44;65.35
53270;BME280;39159;45.634;9.420;2023-02-13T03:11:01;100926.03;;;3.42;65.80
53270;BME280;39159;45.634;9.420;2023-02-13T03:13:46;100936.03;;;3.42;65.98
53270;BME280;39159;45.634;9.420;2023-02-13T03:16:19;100931.69;;;3.41;65.94
53270;BME280;39159;45.634;9.420;2023-02-13T03:19:12;100929.81;;;3.41;65.94
53270;BME280;39159;45.634;9.420;2023-02-13T03:22:08;100927.72;;;3.43;66.17
53270;BME280;39159;45.634;9.420;2023-02-13T03:30:33;100929.38;;;3.44;66.05
53270;BME280;39159;45.634;9.420;2023-02-13T03:33:05;100928.75;;;3.42;66.32
53270;BME280;39159;45.634;9.420;2023-02-13T03:41:26;100925.84;;;3.44;66.37
53270;BME280;39159;45.634;9.420;2023-02-13T03:46:26;100929.81;;;3.41;66.44
53270;BME280;39159;45.634;9.420;2023-02-13T03:48:53;100926.03;;;3.42;66.48
53270;BME280;39159;45.634;9.420;2023-02-13T03:51:43;100932.94;;;3.38;66.56
53270;BME280;39159;45.634;9.420;2023-02-13T03:54:19;100932.94;;;3.38;66.70
53270;BME280;39159;45.634;9.420;2023-02-13T03:56:48;100931.25;;;3.37;66.64
53270;BME280;39159;45.634;9.420;2023-02-13T03:59:35;100940.19;;;3.38;66.68
53270;BME280;39159;45.634;9.420;2023-02-13T04:02:13;100935.00;;;3.36;66.80
53270;BME280;39159;45.634;9.420;2023-02-13T04:04:58;100937.91;;;3.35;66.82
53270;BME280;39159;45.634;9.420;2023-02-13T04:07:24;100938.72;;;3.35;67.01
53270;BME280;39159;45.634;9.420;2023-02-13T04:10:00;100934.16;;;3.36;66.83
53270;BME280;39159;45.634;9.420;2023-02-13T04:15:33;100934.16;;;3.36;66.76
53270;BME280;39159;45.634;9.420;2023-02-13T04:18:12;100939.56;;;3.36;66.87
53270;BME280;39159;45.634;9.420;2023-02-13T04:20:39;100939.56;;;3.36;66.79
53270;BME280;39159;45.634;9.420;2023-02-13T04:23:06;100932.31;;;3.36;66.87
53270;BME280;39159;45.634;9.420;2023-02-13T04:25:33;100938.53;;;3.37;66.80
53270;BME280;39159;45.634;9.420;2023-02-13T04:27:59;100932.94;;;3.38;66.55
53270;BME280;39159;45.634;9.420;2023-02-13T04:30:25;100932.94;;;3.38;66.74
53270;BME280;39159;45.634;9.420;2023-02-13T04:32:50;100931.25;;;3.37;66.94
53270;BME280;39159;45.634;9.420;2023-02-13T04:35:17;100931.25;;;3.37;66.84
53270;BME280;39159;45.634;9.420;2023-02-13T04:37:42;100931.25;;;3.37;66.84
53270;BME280;39159;45.634;9.420;2023-02-13T04:40:08;100933.34;;;3.35;67.13
53270;BME280;39159;45.634;9.420;2023-02-13T04:42:34;100924.00;;;3.31;67.04
53270;BME280;39159;45.634;9.420;2023-02-13T04:44:59;100924.22;;;3.29;67.80
53270;BME280;39159;45.634;9.420;2023-02-13T04:47:24;100926.50;;;3.26;67.67
53270;BME280;39159;45.634;9.420;2023-02-13T04:49:50;100927.97;;;3.22;68.04
53270;BME280;39159;45.634;9.420;2023-02-13T04:52:15;100929.22;;;3.19;68.38
53270;BME280;39159;45.634;9.420;2023-02-13T04:54:41;100926.72;;;3.18;68.46
53270;BME280;39159;45.634;9.420;2023-02-13T04:57:06;100934.44;;;3.14;68.78
53270;BME280;39159;45.634;9.420;2023-02-13T04:59:32;100925.91;;;3.10;69.05
53270;BME280;39159;45.634;9.420;2023-02-13T05:01:57;100923.22;;;3.10;69.27
53270;BME280;39159;45.634;9.420;2023-02-13T05:04:23;100935.25;;;3.08;69.45
53270;BME280;39159;45.634;9.420;2023-02-13T05:06:50;100926.75;;;3.04;69.54
53270;BME280;39159;45.634;9.420;2023-02-13T05:09:15;100931.31;;;3.04;69.87
53270;BME280;39159;45.634;9.420;2023-02-13T05:11:40;100931.53;;;3.02;69.97
53270;BME280;39159;45.634;9.420;2023-02-13T05:14:06;100930.06;;;3.00;70.59
53270;BME280;39159;45.634;9.420;2023-02-13T05:16:32;100934.00;;;3.24;76.87
53270;BME280;39159;45.634;9.420;2023-02-13T05:18:57;100931.69;;;3.34;73.98
53270;BME280;39159;45.634;9.420;2023-02-13T05:21:23;100930.88;;;3.34;72.08
53270;BME280;39159;45.634;9.420;2023-02-13T05:24:07;100931.88;;;3.39;71.51
53270;BME280;39159;45.634;9.420;2023-02-13T05:26:32;100931.84;;;3.52;71.27
53270;BME280;39159;45.634;9.420;2023-02-13T05:28:57;100933.06;;;3.57;70.65
53270;BME280;39159;45.634;9.420;2023-02-13T05:31:41;100927.50;;;3.51;72.17
53270;BME280;39159;45.634;9.420;2023-02-13T05:34:07;100932.63;;;3.60;74.96
53270;BME280;39159;45.634;9.420;2023-02-13T05:36:32;100934.53;;;3.59;73.25
53270;BME280;39159;45.634;9.420;2023-02-13T05:38:58;100930.56;;;3.55;73.45
53270;BME280;39159;45.634;9.420;2023-02-13T05:41:23;100934.53;;;3.59;73.67
53270;BME280;39159;45.634;9.420;2023-02-13T05:43:48;100930.59;;;3.48;74.44
53270;BME280;39159;45.634;9.420;2023-02-13T05:46:14;100929.56;;;3.49;73.97
53270;BME280;39159;45.634;9.420;2023-02-13T05:48:39;100937.66;;;3.56;76.03
53270;BME280;39159;45.634;9.420;2023-02-13T05:51:05;100931.41;;;3.56;75.97
53270;BME280;39159;45.634;9.420;2023-02-13T05:53:31;100930.56;;;3.55;76.86
53270;BME280;39159;45.634;9.420;2023-02-13T05:55:59;100928.72;;;3.49;77.21
53270;BME280;39159;45.634;9.420;2023-02-13T05:58:25;100933.09;;;3.50;76.66
53270;BME280;39159;45.634;9.420;2023-02-13T06:00:55;100934.53;;;3.52;77.61
53270;BME280;39159;45.634;9.420;2023-02-13T06:03:20;100943.69;;;3.51;76.74
53270;BME280;39159;45.634;9.420;2023-02-13T06:05:46;100940.97;;;3.58;78.59
53270;BME280;39159;45.634;9.420;2023-02-13T06:08:11;100948.84;;;3.53;77.16
53270;BME280;39159;45.634;9.420;2023-02-13T06:10:36;100943.69;;;3.51;77.70
53270;BME280;39159;45.634;9.420;2023-02-13T06:13:02;100943.19;;;3.74;82.53
53270;BME280;39159;45.634;9.420;2023-02-13T06:15:27;100937.38;;;3.71;77.73
53270;BME280;39159;45.634;9.420;2023-02-13T06:17:53;100945.91;;;3.68;77.51
53270;BME280;39159;45.634;9.420;2023-02-13T06:20:18;100948.63;;;3.68;78.65
53270;BME280;39159;45.634;9.420;2023-02-13T06:22:48;100947.75;;;3.74;79.47
53270;BME280;39159;45.634;9.420;2023-02-13T06:25:13;100950.06;;;3.64;78.59
53270;BME280;39159;45.634;9.420;2023-02-13T06:27:39;100951.16;;;3.49;78.61
53270;BME280;39159;45.634;9.420;2023-02-13T06:30:05;100955.56;;;3.37;79.33
53270;BME280;39159;45.634;9.420;2023-02-13T06:32:31;100954.09;;;3.41;79.48
53270;BME280;39159;45.634;9.420;2023-02-13T06:34:56;100949.31;;;3.43;79.63
53270;BME280;39159;45.634;9.420;2023-02-13T06:37:22;100950.56;;;3.47;79.53
53270;BME280;39159;45.634;9.420;2023-02-13T06:39:47;100948.06;;;3.46;79.94
53270;BME280;39159;45.634;9.420;2023-02-13T06:42:13;100958.03;;;3.45;79.72
53270;BME280;39159;45.634;9.420;2023-02-13T06:44:38;100966.34;;;3.44;79.33
53270;BME280;39159;45.634;9.420;2023-02-13T06:47:03;100961.13;;;3.42;79.94
53270;BME280;39159;45.634;9.420;2023-02-13T06:49:29;100958.41;;;3.49;80.21
53270;BME280;39159;45.634;9.420;2023-02-13T06:51:54;100963.00;;;3.48;79.50
53270;BME280;39159;45.634;9.420;2023-02-13T06:54:20;100962.59;;;3.51;79.88
53270;BME280;39159;45.634;9.420;2023-02-13T06:56:45;100961.94;;;3.63;80.58
53270;BME280;39159;45.634;9.420;2023-02-13T06:59:10;100964.78;;;3.74;79.03
53270;BME280;39159;45.634;9.420;2023-02-13T07:01:36;100970.59;;;3.78;79.05
53270;BME280;39159;45.634;9.420;2023-02-13T07:04:02;100973.06;;;3.80;78.28
53270;BME280;39159;45.634;9.420;2023-02-13T07:06:27;100975.13;;;3.84;77.33
53270;BME280;39159;45.634;9.420;2023-02-13T07:08:53;100967.66;;;3.86;77.87
53270;BME280;39159;45.634;9.420;2023-02-13T07:11:21;100967.44;;;3.88;76.71
53270;BME280;39159;45.634;9.420;2023-02-13T07:13:47;100971.53;;;4.04;77.62
53270;BME280;39159;45.634;9.420;2023-02-13T07:16:13;100968.16;;;4.08;76.57
53270;BME280;39159;45.634;9.420;2023-02-13T07:18:38;100972.31;;;4.11;74.78
53270;BME280;39159;45.634;9.420;2023-02-13T07:21:03;100974.56;;;4.21;75.21
53270;BME280;39159;45.634;9.420;2023-02-13T07:23:29;100972.69;;;4.21;75.45
53270;BME280;39159;45.634;9.420;2023-02-13T07:25:57;100974.53;;;4.27;75.51
53270;BME280;39159;45.634;9.420;2023-02-13T07:28:23;100970.34;;;4.31;73.33
53270;BME280;39159;45.634;9.420;2023-02-13T07:30:48;100976.34;;;4.33;74.58
53270;BME280;39159;45.634;9.420;2023-02-13T07:33:14;100983.34;;;4.48;73.84
53270;BME280;39159;45.634;9.420;2023-02-13T07:35:45;100986.13;;;4.66;73.74
53270;BME280;39159;45.634;9.420;2023-02-13T07:38:10;100991.50;;;4.73;71.88
53270;BME280;39159;45.634;9.420;2023-02-13T07:40:36;100990.78;;;4.84;72.57
53270;BME280;39159;45.634;9.420;2023-02-13T07:43:01;100992.81;;;4.89;72.25
53270;BME280;39159;45.634;9.420;2023-02-13T07:45:27;100988.53;;;4.81;71.18
53270;BME280;39159;45.634;9.420;2023-02-13T07:47:54;100993.31;;;4.79;71.34
53270;BME280;39159;45.634;9.420;2023-02-13T07:50:20;100997.47;;;4.82;71.51
53270;BME280;39159;45.634;9.420;2023-02-13T07:52:55;100993.69;;;4.89;70.37
53270;BME280;39159;45.634;9.420;2023-02-13T07:55:20;100996.09;;;4.97;70.14
53270;BME280;39159;45.634;9.420;2023-02-13T07:57:46;100986.00;;;5.11;69.27
53270;BME280;39159;45.634;9.420;2023-02-13T08:00:12;100988.38;;;5.45;68.10
53270;BME280;39159;45.634;9.420;2023-02-13T08:02:38;100990.00;;;5.89;66.86
53270;BME280;39159;45.634;9.420;2023-02-13T08:05:03;100987.72;;;6.23;65.43
53270;BME280;39159;45.634;9.420;2023-02-13T08:07:29;100990.56;;;6.58;63.96
53270;BME280;39159;45.634;9.420;2023-02-13T08:09:55;100992.06;;;6.96;62.46
53270;BME280;39159;45.634;9.420;2023-02-13T08:12:39;100985.69;;;7.26;61.32
53270;BME280;39159;45.634;9.420;2023-02-13T08:15:05;100986.16;;;7.46;60.04
53270;BME280;39159;45.634;9.420;2023-02-13T08:17:31;100986.59;;;7.79;59.13
53270;BME280;39159;45.634;9.420;2023-02-13T08:19:57;100986.31;;;8.04;58.79
53270;BME280;39159;45.634;9.420;2023-02-13T08:22:22;100992.50;;;8.28;57.51
53270;BME280;39159;45.634;9.420;2023-02-13T08:24:48;100986.63;;;8.48;57.03
53270;BME280;39159;45.634;9.420;2023-02-13T08:27:14;100986.69;;;8.65;56.20
53270;BME280;39159;45.634;9.420;2023-02-13T08:29:39;100982.72;;;9.06;55.45
53270;BME280;39159;45.634;9.420;2023-02-13T08:32:05;100988.00;;;9.30;53.94
53270;BME280;39159;45.634;9.420;2023-02-13T08:34:31;100978.22;;;9.51;52.34
53270;BME280;39159;45.634;9.420;2023-02-13T08:36:56;100972.31;;;9.76;51.98
53270;BME280;39159;45.634;9.420;2023-02-13T08:39:21;100974.56;;;10.06;51.55
53270;BME280;39159;45.634;9.420;2023-02-13T08:41:47;100972.84;;;10.22;51.14
53270;BME280;39159;45.634;9.420;2023-02-13T08:44:12;100985.25;;;10.57;50.52
53270;BME280;39159;45.634;9.420;2023-02-13T08:46:38;100975.91;;;10.80;50.06
53270;BME280;39159;45.634;9.420;2023-02-13T08:49:03;100981.16;;;10.54;48.57
53270;BME280;39159;45.634;9.420;2023-02-13T08:51:28;100976.47;;;10.82;48.54
53270;BME280;39159;45.634;9.420;2023-02-13T08:53:54;100978.25;;;10.98;47.50
53270;BME280;39159;45.634;9.420;2023-02-13T08:56:19;100975.66;;;11.14;48.56
53270;BME280;39159;45.634;9.420;2023-02-13T08:58:48;100971.38;;;11.28;47.36
53270;BME280;39159;45.634;9.420;2023-02-13T09:01:14;100972.75;;;11.31;48.06
53270;BME280;39159;45.634;9.420;2023-02-13T09:03:39;100978.16;;;11.63;48.42
53270;BME280;39159;45.634;9.420;2023-02-13T09:06:04;100977.59;;;11.66;47.89
53270;BME280;39159;45.634;9.420;2023-02-13T09:08:30;100967.66;;;11.97;48.82
53270;BME280;39159;45.634;9.420;2023-02-13T09:11:01;100975.13;;;12.22;47.00
53270;BME280;39159;45.634;9.420;2023-02-13T09:13:30;100968.63;;;12.49;47.42
53270;BME280;39159;45.634;9.420;2023-02-13T09:15:59;100977.41;;;12.67;45.10
53270;BME280;39159;45.634;9.420;2023-02-13T09:18:25;100962.09;;;12.81;44.47
53270;BME280;39159;45.634;9.420;2023-02-13T09:20:56;100960.97;;;12.87;43.74
53270;BME280;39159;45.634;9.420;2023-02-13T09:23:22;100963.19;;;12.95;43.92
53270;BME280;39159;45.634;9.420;2023-02-13T09:25:47;100966.75;;;12.91;43.11
53270;BME280;39159;45.634;9.420;2023-02-13T09:28:12;100961.00;;;12.92;43.27
53270;BME280;39159;45.634;9.420;2023-02-13T09:30:38;100956.59;;;13.06;43.50
53270;BME280;39159;45.634;9.420;2023-02-13T09:33:09;100958.81;;;12.94;42.30
53270;BME280;39159;45.634;9.420;2023-02-13T09:35:35;100957.97;;;12.89;43.11
53270;BME280;39159;45.634;9.420;2023-02-13T09:38:00;100960.72;;;13.14;41.89
53270;BME280;39159;45.634;9.420;2023-02-13T09:40:36;100952.78;;;13.28;41.35
53270;BME280;39159;45.634;9.420;2023-02-13T09:43:16;100957.94;;;13.40;40.74
53270;BME280;39159;45.634;9.420;2023-02-13T09:45:43;100950.22;;;13.62;41.08
53270;BME280;39159;45.634;9.420;2023-02-13T09:48:26;100959.25;;;13.68;40.00
53270;BME280;39159;45.634;9.420;2023-02-13T09:50:52;100951.56;;;13.70;41.02
53270;BME280;39159;45.634;9.420;2023-02-13T09:53:23;100954.66;;;13.27;41.08
53270;BME280;39159;45.634;9.420;2023-02-13T09:56:54;100955.97;;;13.66;41.69
53270;BME280;39159;45.634;9.420;2023-02-13T09:59:02;100957.72;;;13.05;41.09
53270;BME280;39159;45.634;9.420;2023-02-13T10:01:40;100952.25;;;12.70;42.55
53270;BME280;39159;45.634;9.420;2023-02-13T10:04:33;100950.56;;;13.30;43.02
53270;BME280;39159;45.634;9.420;2023-02-13T10:17:57;100948.81;;;14.25;40.33
53270;BME280;39159;45.634;9.420;2023-02-13T10:20:52;100946.50;;;14.03;40.69
53270;BME280;39159;45.634;9.420;2023-02-13T10:26:00;100949.91;;;14.34;39.86
53270;BME280;39159;45.634;9.420;2023-02-13T10:28:43;100934.47;;;14.38;39.55
53270;BME280;39159;45.634;9.420;2023-02-13T10:31:18;100944.22;;;14.15;39.80
53270;BME280;39159;45.634;9.420;2023-02-13T10:33:51;100938.16;;;14.23;39.66
53270;BME280;39159;45.634;9.420;2023-02-13T10:39:04;100931.53;;;14.29;39.79
53270;BME280;39159;45.634;9.420;2023-02-13T10:41:50;100935.19;;;14.15;39.97
53270;BME280;39159;45.634;9.420;2023-02-13T10:50:02;100930.31;;;14.46;39.14
53270;BME280;39159;45.634;9.420;2023-02-13T11:01:03;100922.25;;;15.23;38.10
53270;BME280;39159;45.634;9.420;2023-02-13T11:03:30;100912.38;;;15.46;37.18
53270;BME280;39159;45.634;9.420;2023-02-13T11:05:57;100914.47;;;15.30;37.15
53270;BME280;39159;45.634;9.420;2023-02-13T11:08:27;100908.31;;;15.15;37.09
53270;BME280;39159;45.634;9.420;2023-02-13T11:10:54;100906.25;;;15.01;37.06
53270;BME280;39159;45.634;9.420;2023-02-13T11:13:23;100895.78;;;14.74;37.11
53270;BME280;39159;45.634;9.420;2023-02-13T11:16:08;100892.34;;;14.53;38.14
53270;BME280;39159;45.634;9.420;2023-02-13T11:18:39;100897.84;;;14.53;37.40
53270;BME280;39159;45.634;9.420;2023-02-13T11:23:36;100896.06;;;14.73;37.80
53270;BME280;39159;45.634;9.420;2023-02-13T11:28:36;100890.00;;;14.36;38.07
53270;BME280;39159;45.634;9.420;2023-02-13T11:31:40;100890.72;;;14.52;38.70
53270;BME280;39159;45.634;9.420;2023-02-13T11:36:51;100882.66;;;14.95;37.27
53270;BME280;39159;45.634;9.420;2023-02-13T11:39:19;100878.84;;;14.91;37.92
53270;BME280;39159;45.634;9.420;2023-02-13T11:41:46;100884.69;;;14.84;37.38
53270;BME280;39159;45.634;9.420;2023-02-13T11:44:26;100880.59;;;14.82;37.82
53270;BME280;39159;45.634;9.420;2023-02-13T11:46:54;100881.31;;;14.63;37.77
53270;BME280;39159;45.634;9.420;2023-02-13T11:49:44;100878.50;;;14.68;37.84
53270;BME280;39159;45.634;9.420;2023-02-13T11:52:23;100885.50;;;14.85;37.74
53270;BME280;39159;45.634;9.420;2023-02-13T11:54:57;100886.28;;;14.90;37.45
53270;BME280;39159;45.634;9.420;2023-02-13T11:57:25;100877.88;;;14.77;37.52
53270;BME280;39159;45.634;9.420;2023-02-13T11:59:53;100874.69;;;14.64;38.07
53270;BME280;39159;45.634;9.420;2023-02-13T12:02:24;100874.63;;;14.69;37.79
53270;BME280;39159;45.634;9.420;2023-02-13T12:04:51;100872.28;;;14.58;37.68
53270;BME280;39159;45.634;9.420;2023-02-13T12:07:29;100868.38;;;14.64;38.20
53270;BME280;39159;45.634;9.420;2023-02-13T12:09:59;100865.91;;;14.91;37.71
53270;BME280;39159;45.634;9.420;2023-02-13T12:12:31;100862.63;;;15.19;37.40
53270;BME280;39159;45.634;9.420;2023-02-13T12:15:01;100868.50;;;15.07;36.57
53270;BME280;39159;45.634;9.420;2023-02-13T12:17:29;100852.66;;;14.69;37.48
53270;BME280;39159;45.634;9.420;2023-02-13T12:19:55;100853.97;;;14.77;37.42
53270;BME280;39159;45.634;9.420;2023-02-13T12:25:18;100853.00;;;14.92;37.33
53270;BME280;39159;45.634;9.420;2023-02-13T12:28:10;100839.88;;;14.84;37.59
53270;BME280;39159;45.634;9.420;2023-02-13T12:31:03;100838.34;;;14.73;37.95
53270;BME280;39159;45.634;9.420;2023-02-13T12:51:08;100813.22;;;14.84;38.42
53270;BME280;39159;45.634;9.420;2023-02-13T12:54:04;100810.38;;;15.19;37.54
53270;BME280;39159;45.634;9.420;2023-02-13T12:56:44;100810.13;;;15.15;37.37
53270;BME280;39159;45.634;9.420;2023-02-13T13:10:13;100782.91;;;14.31;38.61
53270;BME280;39159;45.634;9.420;2023-02-13T13:15:25;100783.38;;;14.38;38.74
53270;BME280;39159;45.634;9.420;2023-02-13T13:17:58;100783.00;;;14.55;38.95
53270;BME280;39159;45.634;9.420;2023-02-13T13:23:19;100769.22;;;14.60;37.72
53270;BME280;39159;45.634;9.420;2023-02-13T13:26:17;100780.19;;;14.60;37.96
53270;BME280;39159;45.634;9.420;2023-02-13T13:28:48;100769.84;;;14.76;37.51
53270;BME280;39159;45.634;9.420;2023-02-13T13:31:15;100766.66;;;14.93;37.23
53270;BME280;39159;45.634;9.420;2023-02-13T13:33:43;100771.56;;;15.20;37.02
53270;BME280;39159;45.634;9.420;2023-02-13T13:39:01;100762.28;;;15.35;36.58
53270;BME280;39159;45.634;9.420;2023-02-13T13:41:46;100754.66;;;15.32;36.26
53270;BME280;39159;45.634;9.420;2023-02-13T13:46:59;100757.88;;;15.15;36.39
53270;BME280;39159;45.634;9.420;2023-02-13T13:49:54;100762.84;;;15.13;36.64
53270;BME280;39159;45.634;9.420;2023-02-13T13:52:31;100752.13;;;15.11;36.57
53270;BME280;39159;45.634;9.420;2023-02-13T13:55:02;100759.94;;;15.04;36.54
53270;BME280;39159;45.634;9.420;2023-02-13T14:02:42;100751.75;;;14.75;37.17
53270;BME280;39159;45.634;9.420;2023-02-13T14:05:27;100736.84;;;14.52;37.65
53270;BME280;39159;45.634;9.420;2023-02-13T14:08:01;100747.66;;;14.73;37.49
53270;BME280;39159;45.634;9.420;2023-02-13T14:18:23;100734.19;;;14.13;38.12
53270;BME280;39159;45.634;9.420;2023-02-13T14:20:50;100729.84;;;14.06;38.47
53270;BME280;39159;45.634;9.420;2023-02-13T14:23:32;100730.25;;;14.24;38.19
53270;BME280;39159;45.634;9.420;2023-02-13T14:28:41;100732.31;;;14.08;38.54
53270;BME280;39159;45.634;9.420;2023-02-13T14:31:27;100728.22;;;14.05;38.49
53270;BME280;39159;45.634;9.420;2023-02-13T14:34:01;100729.66;;;13.98;38.71
53270;BME280;39159;45.634;9.420;2023-02-13T14:36:38;100720.97;;;13.85;38.56
53270;BME280;39159;45.634;9.420;2023-02-13T14:39:29;100726.25;;;13.77;39.00
53270;BME280;39159;45.634;9.420;2023-02-13T14:42:03;100717.97;;;13.47;39.79
53270;BME280;39159;45.634;9.420;2023-02-13T14:44:42;100717.44;;;13.40;39.86
53270;BME280;39159;45.634;9.420;2023-02-13T14:47:38;100719.91;;;13.42;39.75
53270;BME280;39159;45.634;9.420;2023-02-13T14:50:14;100719.13;;;13.26;39.91
53270;BME280;39159;45.634;9.420;2023-02-13T14:52:45;100710.41;;;13.19;40.03
53270;BME280;39159;45.634;9.420;2023-02-13T14:58:06;100707.53;;;12.90;40.99
53270;BME280;39159;45.634;9.420;2023-02-13T15:00:45;100714.13;;;12.83;40.77
53270;BME280;39159;45.634;9.420;2023-02-13T15:05:49;100703.00;;;12.54;41.66
53270;BME280;39159;45.634;9.420;2023-02-13T15:08:19;100700.25;;;12.54;41.70
53270;BME280;39159;45.634;9.420;2023-02-13T15:10:51;100702.41;;;12.62;41.09
53270;BME280;39159;45.634;9.420;2023-02-13T15:13:32;100705.19;;;12.47;41.52
53270;BME280;39159;45.634;9.420;2023-02-13T15:16:09;100701.38;;;12.38;42.28
53270;BME280;39159;45.634;9.420;2023-02-13T15:18:40;100698.13;;;12.26;42.84
53270;BME280;39159;45.634;9.420;2023-02-13T15:21:16;100685.81;;;12.23;43.02
53270;BME280;39159;45.634;9.420;2023-02-13T15:23:43;100702.25;;;12.23;43.04
53270;BME280;39159;45.634;9.420;2023-02-13T15:26:19;100698.41;;;12.19;43.15
53270;BME280;39159;45.634;9.420;2023-02-13T15:29:01;100702.78;;;12.10;44.02
53270;BME280;39159;45.634;9.420;2023-02-13T15:31:31;100696.78;;;11.92;44.70
53270;BME280;39159;45.634;9.420;2023-02-13T15:33:57;100708.22;;;11.84;44.59
53270;BME280;39159;45.634;9.420;2023-02-13T15:36:25;100700.03;;;11.74;44.63
53270;BME280;39159;45.634;9.420;2023-02-13T15:38:58;100706.03;;;11.66;44.76